createdAt,value
2023-02-28T00:01:29.705Z,5.25
2023-02-28T00:03:57.983Z,5.15
2023-02-28T00:06:25.437Z,5.11
2023-02-28T00:08:53.176Z,5.22
2023-02-28T00:11:20.845Z,5.16
2023-02-28T00:13:48.851Z,5.26
2023-02-28T00:16:21.444Z,5.10
2023-02-28T00:18:49.538Z,5.21
2023-02-28T00:21:17.429Z,5.34
2023-02-28T00:23:44.929Z,5.31
2023-02-28T00:26:12.822Z,5.37
2023-02-28T00:28:40.353Z,5.32
2023-02-28T00:31:07.801Z,5.36
2023-02-28T00:33:36.374Z,5.36
2023-02-28T00:36:09.529Z,5.36
2023-02-28T00:38:38.653Z,5.23
2023-02-28T00:41:06.537Z,5.34
2023-02-28T00:43:35.398Z,5.34
2023-02-28T00:46:03.875Z,5.46
2023-02-28T00:48:31.538Z,5.47
2023-02-28T00:50:58.931Z,5.24
2023-02-28T00:53:26.672Z,5.22
2023-02-28T00:55:54.258Z,5.41
2023-02-28T00:58:21.801Z,5.15
2023-02-28T01:00:49.929Z,5.39
2023-02-28T01:03:18.757Z,5.49
2023-02-28T01:05:46.852Z,5.45
2023-02-28T01:08:15.684Z,5.31
2023-02-28T01:10:43.464Z,5.41
2023-02-28T01:13:13.233Z,5.48
2023-02-28T01:15:43.383Z,5.55
2023-02-28T01:18:12.156Z,5.29
2023-02-28T01:20:39.661Z,5.43
2023-02-28T01:23:07.430Z,5.36
2023-02-28T01:25:36.304Z,5.34
2023-02-28T01:28:06.780Z,5.57
2023-02-28T01:30:35.421Z,5.48
2023-02-28T01:33:03.185Z,5.53
2023-02-28T01:35:34.516Z,5.56
2023-02-28T01:38:20.540Z,5.56
2023-02-28T01:40:48.838Z,5.53
2023-02-28T01:43:24.592Z,5.54
2023-02-28T01:45:53.612Z,5.57
2023-02-28T01:48:27.114Z,5.43
2023-02-28T01:50:56.120Z,5.61
2023-02-28T01:53:31.460Z,5.61
2023-02-28T01:55:59.172Z,5.70
2023-02-28T01:58:26.957Z,5.56
2023-02-28T02:00:54.335Z,5.64
2023-02-28T02:03:22.126Z,5.67
2023-02-28T02:05:49.669Z,5.57
2023-02-28T02:08:24.189Z,5.60
2023-02-28T02:11:01.314Z,5.66
2023-02-28T02:13:56.846Z,5.58
2023-02-28T02:16:46.501Z,5.68
2023-02-28T02:19:40.469Z,5.62
2023-02-28T02:22:16.970Z,5.32
2023-02-28T02:25:00.706Z,5.45
2023-02-28T02:28:05.679Z,5.62
2023-02-28T02:30:48.082Z,5.68
2023-02-28T02:33:18.516Z,5.65
2023-02-28T02:35:56.995Z,5.66
2023-02-28T02:38:38.965Z,5.62
2023-02-28T02:41:14.895Z,5.61
2023-02-28T02:43:59.266Z,5.64
2023-02-28T02:46:54.317Z,5.72
2023-02-28T02:49:36.021Z,5.73
2023-02-28T02:52:07.552Z,5.66
2023-02-28T02:54:38.483Z,5.59
2023-02-28T02:57:09.597Z,5.64
2023-02-28T02:59:39.863Z,5.71
2023-02-28T03:02:09.980Z,5.64
2023-02-28T03:04:43.473Z,5.82
2023-02-28T03:07:10.904Z,5.73
2023-02-28T03:09:38.796Z,5.43
2023-02-28T03:12:11.221Z,5.47
2023-02-28T03:14:41.889Z,5.50
2023-02-28T03:17:29.507Z,5.64
2023-02-28T03:20:21.836Z,5.69
2023-02-28T03:23:17.914Z,5.77
2023-02-28T03:25:56.890Z,5.73
2023-02-28T03:28:30.529Z,5.85
2023-02-28T03:31:20.611Z,5.91
2023-02-28T03:34:11.189Z,5.65
2023-02-28T03:37:00.864Z,5.76
2023-02-28T03:39:31.404Z,5.64
2023-02-28T03:42:02.128Z,5.76
2023-02-28T03:44:39.453Z,5.74
2023-02-28T03:47:37.604Z,5.58
2023-02-28T03:50:11.280Z,5.68
2023-02-28T03:52:46.039Z,5.69
2023-02-28T03:55:14.441Z,5.77
2023-02-28T03:58:09.237Z,5.57
2023-02-28T04:00:41.578Z,5.74
2023-02-28T04:03:09.608Z,5.62
2023-02-28T04:05:49.737Z,5.76
2023-02-28T04:08:17.562Z,5.62
2023-02-28T04:10:46.592Z,5.65
2023-02-28T04:13:13.962Z,5.67
2023-02-28T04:15:42.150Z,5.77
2023-02-28T04:18:09.604Z,5.77
2023-02-28T04:20:37.228Z,5.63
2023-02-28T04:23:05.151Z,5.81
2023-02-28T04:25:32.567Z,5.73
2023-02-28T04:27:59.914Z,5.66
2023-02-28T04:30:27.654Z,5.87
2023-02-28T04:32:55.061Z,5.70
2023-02-28T04:35:22.488Z,5.68
2023-02-28T04:37:50.174Z,5.71
2023-02-28T04:40:17.627Z,5.71
2023-02-28T04:42:45.023Z,5.72
2023-02-28T04:45:12.670Z,5.83
2023-02-28T04:47:40.238Z,6.03
2023-02-28T04:50:08.292Z,5.90
2023-02-28T04:52:35.997Z,5.81
2023-02-28T04:55:03.525Z,5.81
2023-02-28T04:57:31.024Z,5.73
2023-02-28T04:59:58.702Z,5.82
2023-02-28T05:02:26.195Z,5.98
2023-02-28T05:04:53.641Z,5.99
2023-02-28T05:07:21.343Z,5.89
2023-02-28T05:09:48.769Z,5.85
2023-02-28T05:12:16.944Z,5.97
2023-02-28T05:14:45.196Z,6.01
2023-02-28T05:17:12.547Z,5.88
2023-02-28T05:19:39.878Z,5.78
2023-02-28T05:22:14.446Z,5.97
2023-02-28T05:24:43.245Z,5.94
2023-02-28T05:27:11.446Z,5.85
2023-02-28T05:29:42.984Z,5.96
2023-02-28T05:32:12.110Z,5.99
2023-02-28T05:34:40.403Z,6.04
2023-02-28T05:37:12.401Z,5.93
2023-02-28T05:39:40.014Z,5.98
2023-02-28T05:42:07.670Z,5.98
2023-02-28T05:44:35.041Z,5.91
2023-02-28T05:47:02.876Z,5.79
2023-02-28T05:49:30.283Z,5.80
2023-02-28T05:51:57.729Z,5.77
2023-02-28T05:54:25.414Z,5.77
2023-02-28T05:56:52.805Z,5.87
2023-02-28T05:59:21.108Z,5.94
2023-02-28T06:01:52.591Z,5.94
2023-02-28T06:04:31.538Z,5.99
2023-02-28T06:06:59.661Z,5.88
2023-02-28T06:09:27.392Z,5.98
2023-02-28T06:11:55.178Z,5.90
2023-02-28T06:14:22.604Z,6.07
2023-02-28T06:16:50.450Z,6.23
2023-02-28T06:19:18.100Z,5.93
2023-02-28T06:21:45.509Z,5.88
2023-02-28T06:24:13.242Z,5.88
2023-02-28T06:26:40.656Z,5.90
2023-02-28T06:29:08.499Z,5.84
2023-02-28T06:31:36.277Z,5.92
2023-02-28T06:34:03.739Z,5.68
2023-02-28T06:36:31.421Z,5.94
2023-02-28T06:38:59.098Z,5.85
2023-02-28T06:41:27.672Z,5.99
2023-02-28T06:43:55.671Z,6.07
2023-02-28T06:46:24.357Z,5.99
2023-02-28T06:48:51.763Z,6.25
2023-02-28T06:51:25.270Z,6.24
2023-02-28T06:53:52.944Z,6.06
2023-02-28T06:56:21.350Z,6.21
2023-02-28T06:58:50.218Z,6.07
2023-02-28T07:01:18.225Z,5.96
2023-02-28T07:03:46.281Z,6.10
2023-02-28T07:06:13.732Z,6.14
2023-02-28T07:08:42.088Z,6.27
2023-02-28T07:11:09.523Z,6.21
2023-02-28T07:13:37.427Z,6.42
2023-02-28T07:16:07.179Z,6.42
2023-02-28T07:18:34.806Z,6.51
2023-02-28T07:21:07.598Z,6.79
2023-02-28T07:23:35.663Z,6.93
2023-02-28T07:26:03.078Z,6.93
2023-02-28T07:28:30.733Z,7.25
2023-02-28T07:30:58.403Z,7.36
2023-02-28T07:33:25.825Z,7.22
2023-02-28T07:35:53.248Z,7.26
2023-02-28T07:38:20.856Z,7.54
2023-02-28T07:40:48.261Z,7.61
2023-02-28T07:43:15.588Z,7.73
2023-02-28T07:45:43.226Z,7.59
2023-02-28T07:48:11.055Z,7.66
2023-02-28T07:50:38.837Z,7.78
2023-02-28T07:53:06.537Z,7.87
2023-02-28T07:55:33.970Z,7.85
2023-02-28T07:58:01.353Z,7.80
2023-02-28T08:00:30.112Z,7.84
2023-02-28T08:02:57.881Z,7.73
2023-02-28T08:05:25.397Z,7.80
2023-02-28T08:07:54.268Z,8.01
2023-02-28T08:10:22.113Z,8.28
2023-02-28T08:12:49.500Z,8.02
2023-02-28T08:15:16.977Z,8.08
2023-02-28T08:17:44.658Z,8.30
2023-02-28T08:20:12.388Z,8.36
2023-02-28T08:22:39.817Z,8.31
2023-02-28T08:25:08.376Z,8.08
2023-02-28T08:27:36.621Z,7.78
2023-02-28T08:30:04.649Z,8.04
2023-02-28T08:32:34.166Z,8.01
2023-02-28T08:35:02.834Z,7.79
2023-02-28T08:37:30.311Z,7.84
2023-02-28T08:39:58.068Z,7.93
2023-02-28T08:42:25.458Z,8.17
2023-02-28T08:44:52.947Z,8.06
2023-02-28T08:47:20.629Z,7.86
2023-02-28T08:49:48.038Z,7.94
2023-02-28T08:52:15.522Z,8.06
2023-02-28T08:54:43.185Z,7.89
2023-02-28T08:57:10.730Z,7.99
2023-02-28T08:59:38.094Z,7.83
2023-02-28T09:02:05.698Z,8.00
2023-02-28T09:04:34.806Z,7.91
2023-02-28T09:07:02.141Z,8.09
2023-02-28T09:09:29.784Z,7.83
2023-02-28T09:11:57.873Z,7.89
2023-02-28T09:14:25.331Z,7.77
2023-02-28T09:16:52.997Z,7.74
2023-02-28T09:19:20.486Z,7.77
2023-02-28T09:21:47.895Z,7.95
2023-02-28T09:24:16.326Z,8.23
2023-02-28T09:26:56.282Z,8.23
2023-02-28T09:29:31.980Z,8.46
2023-02-28T09:32:02.408Z,8.60
2023-02-28T09:34:32.637Z,8.60
2023-02-28T09:37:00.466Z,8.60
2023-02-28T09:39:28.064Z,8.53
2023-02-28T09:41:56.673Z,8.60
2023-02-28T09:44:33.158Z,8.69
2023-02-28T09:47:25.131Z,8.88
2023-02-28T09:49:52.832Z,9.04
2023-02-28T09:52:23.205Z,8.98
2023-02-28T09:54:50.730Z,8.91
2023-02-28T09:57:40.129Z,8.69
2023-02-28T10:00:32.917Z,8.79
2023-02-28T10:03:27.829Z,9.16
2023-02-28T10:06:15.638Z,9.00
2023-02-28T10:09:03.383Z,9.03
2023-02-28T10:11:33.812Z,9.11
2023-02-28T10:14:11.652Z,9.09
2023-02-28T10:16:47.325Z,9.24
2023-02-28T10:19:22.935Z,9.19
2023-02-28T10:22:00.448Z,9.24
2023-02-28T10:24:39.804Z,9.08
2023-02-28T10:27:25.232Z,8.94
2023-02-28T10:29:55.846Z,9.25
2023-02-28T10:32:29.807Z,9.07
2023-02-28T10:35:01.374Z,9.16
2023-02-28T10:37:29.417Z,9.34
2023-02-28T10:39:57.361Z,9.43
2023-02-28T10:42:29.580Z,9.54
2023-02-28T10:45:07.529Z,9.61
2023-02-28T10:47:37.545Z,9.72
2023-02-28T10:50:05.569Z,9.72
2023-02-28T10:52:38.624Z,9.58
2023-02-28T10:55:25.911Z,9.46
2023-02-28T10:57:53.542Z,9.59
2023-02-28T11:00:26.634Z,9.44
2023-02-28T11:02:54.039Z,9.53
2023-02-28T11:05:25.289Z,9.56
2023-02-28T11:07:55.228Z,9.63
2023-02-28T11:10:26.762Z,9.74
2023-02-28T11:12:59.731Z,9.56
2023-02-28T11:15:30.655Z,9.75
2023-02-28T11:18:04.534Z,9.53
2023-02-28T11:20:33.653Z,9.53
2023-02-28T11:23:03.582Z,9.72
2023-02-28T11:25:37.517Z,9.88
2023-02-28T11:28:07.681Z,9.78
2023-02-28T11:30:41.409Z,10.02
2023-02-28T11:33:29.803Z,10.28
2023-02-28T11:36:04.581Z,10.16
2023-02-28T11:38:35.333Z,10.23
2023-02-28T11:41:11.325Z,10.19
2023-02-28T11:43:52.082Z,10.20
2023-02-28T11:46:29.410Z,10.17
2023-02-28T11:49:18.832Z,10.28
2023-02-28T11:51:59.571Z,10.14
2023-02-28T11:54:49.083Z,10.27
2023-02-28T11:57:16.392Z,10.04
2023-02-28T11:59:56.649Z,10.03
2023-02-28T12:02:46.025Z,9.98
2023-02-28T12:05:24.055Z,9.87
2023-02-28T12:08:18.024Z,9.80
2023-02-28T12:11:01.544Z,10.04
2023-02-28T12:13:44.422Z,10.29
2023-02-28T12:16:24.438Z,10.20
2023-02-28T12:18:58.073Z,10.27
2023-02-28T12:21:41.408Z,10.22
2023-02-28T12:24:11.520Z,10.09
2023-02-28T12:26:41.224Z,10.22
2023-02-28T12:29:25.273Z,10.35
2023-02-28T12:32:09.281Z,10.25
2023-02-28T12:34:40.678Z,9.97
2023-02-28T12:37:16.050Z,10.15
2023-02-28T12:39:50.510Z,10.17
2023-02-28T12:42:30.525Z,10.17
2023-02-28T12:45:00.789Z,10.22
2023-02-28T12:47:28.666Z,9.95
2023-02-28T12:50:07.237Z,9.81
2023-02-28T12:53:00.679Z,9.88
2023-02-28T12:55:44.314Z,9.97
2023-02-28T12:58:17.056Z,9.71
2023-02-28T13:00:56.387Z,9.58
2023-02-28T13:03:42.101Z,9.70
2023-02-28T13:06:34.739Z,9.82
2023-02-28T13:09:16.622Z,9.62
2023-02-28T13:11:49.377Z,9.56
2023-02-28T13:14:28.690Z,9.79
2023-02-28T13:17:08.095Z,9.78
2023-02-28T13:19:39.029Z,9.70
2023-02-28T13:22:07.055Z,9.77
2023-02-28T13:24:41.637Z,9.77
2023-02-28T13:27:10.565Z,9.87
2023-02-28T13:29:41.373Z,9.93
2023-02-28T13:32:11.930Z,10.04
2023-02-28T13:34:50.437Z,10.26
2023-02-28T13:37:24.145Z,10.07
2023-02-28T13:39:54.382Z,10.19
2023-02-28T13:42:36.971Z,10.60
2023-02-28T13:45:04.362Z,10.14
2023-02-28T13:47:55.742Z,10.22
2023-02-28T13:50:30.814Z,10.10
2023-02-28T13:53:16.998Z,10.40
2023-02-28T13:55:50.015Z,9.92
2023-02-28T13:58:18.860Z,10.05
2023-02-28T14:00:56.347Z,10.02
2023-02-28T14:03:27.442Z,9.95
2023-02-28T14:06:16.915Z,9.81
2023-02-28T14:09:22.496Z,9.79
2023-02-28T14:11:50.103Z,9.90
2023-02-28T14:14:47.164Z,9.95
2023-02-28T14:17:16.273Z,9.78
2023-02-28T14:19:50.961Z,9.63
2023-02-28T14:22:54.018Z,9.69
2023-02-28T14:25:56.959Z,9.58
2023-02-28T14:28:53.786Z,9.69
2023-02-28T14:31:38.337Z,9.66
2023-02-28T14:34:24.551Z,9.58
2023-02-28T14:36:53.919Z,9.61
2023-02-28T14:39:23.772Z,9.81
2023-02-28T14:41:51.654Z,9.80
2023-02-28T14:44:24.620Z,9.75
2023-02-28T14:46:57.965Z,9.85
2023-02-28T14:49:33.732Z,9.79
2023-02-28T14:52:20.758Z,9.95
2023-02-28T14:55:00.329Z,9.99
2023-02-28T14:57:31.587Z,9.64
2023-02-28T15:00:11.549Z,9.94
2023-02-28T15:02:40.298Z,9.76
2023-02-28T15:05:10.831Z,9.76
2023-02-28T15:07:38.305Z,9.99
2023-02-28T15:10:08.559Z,9.86
2023-02-28T15:12:37.212Z,9.92
2023-02-28T15:15:05.111Z,10.06
2023-02-28T15:17:32.724Z,10.14
2023-02-28T15:20:00.762Z,10.00
2023-02-28T15:22:35.587Z,9.92
2023-02-28T15:25:06.848Z,9.64
2023-02-28T15:27:34.985Z,9.85
2023-02-28T15:30:08.853Z,9.85
2023-02-28T15:32:40.641Z,9.52
2023-02-28T15:35:38.158Z,9.53
2023-02-28T15:38:27.162Z,9.33
2023-02-28T15:40:56.923Z,9.31
2023-02-28T15:43:36.512Z,9.14
2023-02-28T15:46:12.196Z,9.19
2023-02-28T15:48:59.844Z,9.42
2023-02-28T15:51:34.681Z,9.37
2023-02-28T15:54:11.882Z,9.59
2023-02-28T15:56:44.615Z,9.38
2023-02-28T15:59:18.755Z,9.66
2023-02-28T16:01:46.839Z,9.67
2023-02-28T16:04:19.916Z,9.52
2023-02-28T16:06:53.997Z,9.51
2023-02-28T16:09:21.759Z,9.44
2023-02-28T16:11:50.990Z,9.31
2023-02-28T16:14:24.039Z,9.31
2023-02-28T16:16:56.733Z,9.31
2023-02-28T16:19:24.747Z,9.36
2023-02-28T16:21:52.531Z,9.45
2023-02-28T16:24:19.984Z,9.47
2023-02-28T16:26:49.519Z,9.49
2023-02-28T16:29:23.816Z,9.43
2023-02-28T16:31:51.231Z,9.40
2023-02-28T16:34:18.910Z,9.43
2023-02-28T16:36:49.834Z,9.25
2023-02-28T16:39:17.440Z,9.42
2023-02-28T16:41:46.202Z,9.24
2023-02-28T16:44:29.675Z,9.33
2023-02-28T16:46:57.439Z,9.31
2023-02-28T16:49:24.819Z,9.44
2023-02-28T16:51:52.240Z,9.44
2023-02-28T16:54:19.978Z,9.35
2023-02-28T16:56:48.357Z,9.22
2023-02-28T16:59:20.942Z,9.30
2023-02-28T17:01:48.780Z,9.40
2023-02-28T17:04:16.717Z,9.49
2023-02-28T17:06:44.298Z,9.38
2023-02-28T17:09:22.917Z,9.39
2023-02-28T17:11:51.934Z,9.47
2023-02-28T17:14:19.624Z,9.40
2023-02-28T17:16:48.191Z,9.41
2023-02-28T17:19:17.881Z,9.55
2023-02-28T17:21:45.740Z,9.62
2023-02-28T17:24:28.916Z,9.43
2023-02-28T17:26:58.184Z,9.51
2023-02-28T17:29:25.938Z,9.45
2023-02-28T17:31:53.417Z,9.49
2023-02-28T17:34:21.155Z,9.51
2023-02-28T17:36:50.420Z,9.64
2023-02-28T17:39:25.383Z,9.58
2023-02-28T17:41:53.826Z,9.39
2023-02-28T17:44:22.140Z,9.23
2023-02-28T17:46:50.461Z,9.31
2023-02-28T17:49:19.209Z,9.41
2023-02-28T17:51:47.394Z,9.52
2023-02-28T17:54:16.064Z,9.42
2023-02-28T17:56:44.807Z,9.42
2023-02-28T17:59:13.060Z,9.32
2023-02-28T18:01:40.597Z,9.35
2023-02-28T18:04:08.276Z,9.40
2023-02-28T18:06:47.057Z,9.50
2023-02-28T18:09:16.314Z,9.42
2023-02-28T18:11:46.053Z,9.40
2023-02-28T18:14:13.588Z,9.40
2023-02-28T18:16:41.421Z,9.50
2023-02-28T18:19:14.824Z,9.42
2023-02-28T18:21:43.870Z,9.46
2023-02-28T18:24:12.647Z,9.53
2023-02-28T18:26:40.456Z,9.52
2023-02-28T18:29:08.466Z,9.62
2023-02-28T18:31:36.163Z,9.49
2023-02-28T18:34:03.665Z,9.54
2023-02-28T18:36:31.656Z,9.43
2023-02-28T18:38:59.873Z,9.42
2023-02-28T18:41:28.984Z,9.34
2023-02-28T18:43:56.760Z,9.35
2023-02-28T18:46:24.196Z,9.38
2023-02-28T18:48:51.599Z,9.40
2023-02-28T18:51:22.833Z,9.37
2023-02-28T18:53:50.216Z,9.40
2023-02-28T18:56:19.568Z,9.51
2023-02-28T18:58:47.646Z,9.37
2023-02-28T19:01:23.791Z,9.23
2023-02-28T19:03:51.623Z,9.24
2023-02-28T19:06:52.234Z,10.00
2023-02-28T19:09:20.049Z,10.00
2023-02-28T19:11:47.486Z,9.21
2023-02-28T19:14:14.834Z,9.21
2023-02-28T19:16:42.565Z,9.19
2023-02-28T19:19:09.967Z,9.15
2023-02-28T19:21:37.452Z,9.19
2023-02-28T19:24:05.485Z,9.25
2023-02-28T19:26:32.904Z,9.11
2023-02-28T19:29:03.637Z,9.10
2023-02-28T19:31:31.686Z,9.23
2023-02-28T19:33:59.289Z,9.21
2023-02-28T19:36:27.501Z,9.21
2023-02-28T19:38:55.199Z,9.24
2023-02-28T19:41:22.746Z,9.21
2023-02-28T19:43:51.211Z,9.17
2023-02-28T19:46:20.140Z,9.15
2023-02-28T19:48:48.813Z,9.21
2023-02-28T19:53:49.037Z,9.09
2023-02-28T19:56:16.446Z,9.13
2023-02-28T19:58:43.829Z,9.15
2023-02-28T20:01:13.662Z,9.10
2023-02-28T20:03:41.806Z,9.20
2023-02-28T20:06:13.673Z,9.26
2023-02-28T20:08:41.832Z,9.15
2023-02-28T20:11:11.837Z,9.23
2023-02-28T20:13:39.330Z,9.13
2023-02-28T20:16:09.615Z,9.02
2023-02-28T20:18:41.063Z,9.20
2023-02-28T20:21:09.932Z,9.14
2023-02-28T20:23:40.985Z,9.10
2023-02-28T20:26:10.015Z,9.12
2023-02-28T20:28:38.248Z,9.20
2023-02-28T20:31:17.638Z,9.14
2023-02-28T20:33:46.927Z,9.05
2023-02-28T20:36:15.776Z,9.11
2023-02-28T20:38:43.689Z,9.12
2023-02-28T20:41:11.562Z,9.01
2023-02-28T20:43:39.877Z,9.12
2023-02-28T20:46:07.317Z,9.66
2023-02-28T20:48:38.426Z,10.14
2023-02-28T20:51:06.315Z,10.50
2023-02-28T20:53:35.163Z,10.50
2023-02-28T20:56:05.674Z,10.55
2023-02-28T20:58:35.582Z,10.37
2023-02-28T21:01:12.482Z,10.32
2023-02-28T21:03:40.125Z,10.12
2023-02-28T21:06:08.098Z,10.06
2023-02-28T21:08:37.045Z,9.96
2023-02-28T21:11:35.034Z,9.72
2023-02-28T21:14:05.158Z,9.77
2023-02-28T21:16:33.222Z,9.59
2023-02-28T21:19:06.813Z,9.47
2023-02-28T21:21:40.044Z,9.52
2023-02-28T21:24:07.836Z,9.44
2023-02-28T21:26:35.553Z,9.30
2023-02-28T21:29:03.377Z,9.28
2023-02-28T21:31:32.859Z,9.37
2023-02-28T21:34:01.888Z,9.37
2023-02-28T21:36:33.079Z,9.26
2023-02-28T21:39:04.963Z,9.32
2023-02-28T21:41:32.342Z,9.30
2023-02-28T21:43:59.720Z,9.24
2023-02-28T21:46:29.171Z,9.25
2023-02-28T21:48:57.469Z,9.21
2023-02-28T21:51:33.828Z,9.12
2023-02-28T21:54:01.564Z,9.12
2023-02-28T21:56:31.450Z,9.07
2023-02-28T21:59:02.822Z,8.96
2023-02-28T22:01:36.101Z,8.96
2023-02-28T22:04:06.291Z,9.10
2023-02-28T22:06:36.438Z,9.00
2023-02-28T22:09:07.448Z,8.83
2023-02-28T22:11:36.023Z,8.90
2023-02-28T22:14:03.690Z,9.02
2023-02-28T22:16:44.116Z,8.96
2023-02-28T22:19:16.626Z,8.99
2023-02-28T22:21:44.954Z,8.92
2023-02-28T22:24:12.308Z,8.95
2023-02-28T22:26:39.970Z,8.92
2023-02-28T22:29:07.559Z,8.92
2023-02-28T22:31:35.520Z,8.92
2023-02-28T22:34:09.386Z,8.91
2023-02-28T22:36:37.449Z,8.96
2023-02-28T22:39:05.249Z,8.91
2023-02-28T22:41:33.203Z,8.79
2023-02-28T22:44:02.375Z,8.85
2023-02-28T22:46:32.372Z,8.85
2023-02-28T22:49:01.133Z,8.87
2023-02-28T22:51:29.303Z,8.87
2023-02-28T22:53:58.120Z,8.84
2023-02-28T22:56:28.153Z,8.88
2023-02-28T22:58:57.506Z,8.63
2023-02-28T23:01:27.122Z,8.53
2023-02-28T23:03:54.912Z,8.76
2023-02-28T23:06:31.304Z,8.90
2023-02-28T23:09:02.204Z,8.79
2023-02-28T23:11:33.101Z,8.74
2023-02-28T23:14:01.180Z,8.79
2023-02-28T23:16:37.754Z,8.79
2023-02-28T23:19:26.572Z,8.88
2023-02-28T23:21:54.095Z,8.93
2023-02-28T23:24:23.909Z,9.03
2023-02-28T23:26:53.894Z,9.06
2023-02-28T23:29:23.117Z,9.06
2023-02-28T23:31:51.076Z,8.92
2023-02-28T23:34:26.123Z,8.77
2023-02-28T23:36:55.199Z,8.71
2023-02-28T23:39:22.985Z,8.76
2023-02-28T23:41:50.441Z,8.80
2023-02-28T23:44:18.222Z,8.82
2023-02-28T23:46:47.590Z,8.90
2023-02-28T23:49:15.850Z,9.00
2023-02-28T23:51:43.517Z,8.79
2023-02-28T23:54:11.039Z,8.83
2023-02-28T23:56:38.412Z,8.81
2023-02-28T23:59:06.336Z,8.80
